sensor_id;sensor_type;location;lat;lon;timestamp;P1;durP1;ratioP1;P2;durP2;ratioP2
2750;SDS011;1383;48.362;10.908;2022-12-08T00:01:06;18.58;;;14.02;;
2750;SDS011;1383;48.362;10.908;2022-12-08T00:03:35;20.33;;;14.15;;
2750;SDS011;1383;48.362;10.908;2022-12-08T00:06:03;17.70;;;12.00;;
2750;SDS011;1383;48.362;10.908;2022-12-08T00:08:49;21.80;;;14.20;;
2750;SDS011;1383;48.362;10.908;2022-12-08T00:11:35;20.33;;;13.43;;
2750;SDS011;1383;48.362;10.908;2022-12-08T00:14:02;23.33;;;14.25;;
2750;SDS011;1383;48.362;10.908;2022-12-08T00:16:28;22.45;;;14.30;;
2750;SDS011;1383;48.362;10.908;2022-12-08T00:18:55;19.40;;;13.85;;
2750;SDS011;1383;48.362;10.908;2022-12-08T00:21:22;21.20;;;13.73;;
2750;SDS011;1383;48.362;10.908;2022-12-08T00:23:49;21.67;;;12.90;;
2750;SDS011;1383;48.362;10.908;2022-12-08T00:26:16;21.90;;;14.02;;
2750;SDS011;1383;48.362;10.908;2022-12-08T00:28:42;25.80;;;15.35;;
2750;SDS011;1383;48.362;10.908;2022-12-08T00:31:10;18.95;;;13.57;;
2750;SDS011;1383;48.362;10.908;2022-12-08T00:33:37;20.08;;;13.70;;
2750;SDS011;1383;48.362;10.908;2022-12-08T00:36:07;21.15;;;14.88;;
2750;SDS011;1383;48.362;10.908;2022-12-08T00:38:36;17.55;;;13.20;;
2750;SDS011;1383;48.362;10.908;2022-12-08T00:41:06;21.45;;;13.77;;
2750;SDS011;1383;48.362;10.908;2022-12-08T00:43:37;21.85;;;14.80;;
2750;SDS011;1383;48.362;10.908;2022-12-08T00:46:05;21.80;;;15.82;;
2750;SDS011;1383;48.362;10.908;2022-12-08T00:48:32;20.30;;;13.73;;
2750;SDS011;1383;48.362;10.908;2022-12-08T00:50:59;20.38;;;13.90;;
2750;SDS011;1383;48.362;10.908;2022-12-08T00:53:26;17.55;;;14.30;;
2750;SDS011;1383;48.362;10.908;2022-12-08T00:55:52;19.20;;;13.90;;
2750;SDS011;1383;48.362;10.908;2022-12-08T00:58:19;21.38;;;14.75;;
2750;SDS011;1383;48.362;10.908;2022-12-08T01:00:46;20.77;;;14.93;;
2750;SDS011;1383;48.362;10.908;2022-12-08T01:03:13;20.95;;;13.25;;
2750;SDS011;1383;48.362;10.908;2022-12-08T01:05:40;18.60;;;14.63;;
2750;SDS011;1383;48.362;10.908;2022-12-08T01:08:07;20.88;;;14.00;;
2750;SDS011;1383;48.362;10.908;2022-12-08T01:10:34;20.42;;;13.90;;
2750;SDS011;1383;48.362;10.908;2022-12-08T01:13:02;24.05;;;15.75;;
2750;SDS011;1383;48.362;10.908;2022-12-08T01:15:29;23.67;;;14.88;;
2750;SDS011;1383;48.362;10.908;2022-12-08T01:17:56;19.17;;;14.43;;
2750;SDS011;1383;48.362;10.908;2022-12-08T01:20:23;21.98;;;14.52;;
2750;SDS011;1383;48.362;10.908;2022-12-08T01:22:50;23.73;;;16.27;;
2750;SDS011;1383;48.362;10.908;2022-12-08T01:25:16;18.90;;;13.90;;
2750;SDS011;1383;48.362;10.908;2022-12-08T01:27:43;18.73;;;14.20;;
2750;SDS011;1383;48.362;10.908;2022-12-08T01:30:10;22.88;;;15.32;;
2750;SDS011;1383;48.362;10.908;2022-12-08T01:32:38;19.27;;;13.38;;
2750;SDS011;1383;48.362;10.908;2022-12-08T01:35:05;21.38;;;13.93;;
2750;SDS011;1383;48.362;10.908;2022-12-08T01:37:32;17.70;;;14.18;;
2750;SDS011;1383;48.362;10.908;2022-12-08T01:39:59;17.13;;;12.48;;
2750;SDS011;1383;48.362;10.908;2022-12-08T01:42:26;19.83;;;14.80;;
2750;SDS011;1383;48.362;10.908;2022-12-08T01:44:55;22.45;;;15.20;;
2750;SDS011;1383;48.362;10.908;2022-12-08T01:47:30;22.35;;;15.02;;
2750;SDS011;1383;48.362;10.908;2022-12-08T01:50:06;22.75;;;15.10;;
2750;SDS011;1383;48.362;10.908;2022-12-08T01:52:37;22.52;;;14.07;;
2750;SDS011;1383;48.362;10.908;2022-12-08T01:55:09;18.70;;;13.48;;
2750;SDS011;1383;48.362;10.908;2022-12-08T01:57:48;20.33;;;13.70;;
2750;SDS011;1383;48.362;10.908;2022-12-08T02:00:19;18.17;;;14.50;;
2750;SDS011;1383;48.362;10.908;2022-12-08T02:05:25;21.63;;;13.80;;
2750;SDS011;1383;48.362;10.908;2022-12-08T02:07:54;20.38;;;13.38;;
2750;SDS011;1383;48.362;10.908;2022-12-08T02:10:22;17.05;;;12.05;;
2750;SDS011;1383;48.362;10.908;2022-12-08T02:12:50;18.92;;;12.82;;
2750;SDS011;1383;48.362;10.908;2022-12-08T02:15:20;20.55;;;15.02;;
2750;SDS011;1383;48.362;10.908;2022-12-08T02:20:36;19.48;;;12.82;;
2750;SDS011;1383;48.362;10.908;2022-12-08T02:23:14;20.10;;;14.50;;
2750;SDS011;1383;48.362;10.908;2022-12-08T02:25:49;17.90;;;11.95;;
2750;SDS011;1383;48.362;10.908;2022-12-08T02:39:36;18.63;;;13.48;;
2750;SDS011;1383;48.362;10.908;2022-12-08T02:48:13;18.42;;;13.30;;
2750;SDS011;1383;48.362;10.908;2022-12-08T02:50:40;18.70;;;11.98;;
2750;SDS011;1383;48.362;10.908;2022-12-08T02:53:07;16.65;;;12.98;;
2750;SDS011;1383;48.362;10.908;2022-12-08T02:55:45;21.52;;;14.05;;
2750;SDS011;1383;48.362;10.908;2022-12-08T02:58:33;18.85;;;13.30;;
2750;SDS011;1383;48.362;10.908;2022-12-08T03:04:14;17.77;;;12.35;;
2750;SDS011;1383;48.362;10.908;2022-12-08T03:07:09;18.83;;;12.75;;
2750;SDS011;1383;48.362;10.908;2022-12-08T03:09:55;17.25;;;11.45;;
2750;SDS011;1383;48.362;10.908;2022-12-08T03:12:32;18.75;;;12.32;;
2750;SDS011;1383;48.362;10.908;2022-12-08T03:15:06;21.20;;;13.93;;
2750;SDS011;1383;48.362;10.908;2022-12-08T03:17:36;16.75;;;11.77;;
2750;SDS011;1383;48.362;10.908;2022-12-08T03:20:08;16.25;;;12.88;;
2750;SDS011;1383;48.362;10.908;2022-12-08T03:22:38;19.50;;;12.88;;
2750;SDS011;1383;48.362;10.908;2022-12-08T03:25:07;17.92;;;12.85;;
2750;SDS011;1383;48.362;10.908;2022-12-08T03:27:37;17.73;;;11.63;;
2750;SDS011;1383;48.362;10.908;2022-12-08T03:30:05;23.02;;;14.30;;
2750;SDS011;1383;48.362;10.908;2022-12-08T03:32:37;23.00;;;14.30;;
2750;SDS011;1383;48.362;10.908;2022-12-08T03:35:07;19.00;;;12.02;;
2750;SDS011;1383;48.362;10.908;2022-12-08T03:37:37;21.52;;;12.68;;
2750;SDS011;1383;48.362;10.908;2022-12-08T03:40:06;21.17;;;13.55;;
2750;SDS011;1383;48.362;10.908;2022-12-08T03:42:35;19.73;;;14.20;;
2750;SDS011;1383;48.362;10.908;2022-12-08T03:45:02;17.77;;;11.70;;
2750;SDS011;1383;48.362;10.908;2022-12-08T03:47:29;18.02;;;13.40;;
2750;SDS011;1383;48.362;10.908;2022-12-08T03:49:56;21.70;;;13.30;;
2750;SDS011;1383;48.362;10.908;2022-12-08T03:52:23;19.45;;;13.63;;
2750;SDS011;1383;48.362;10.908;2022-12-08T03:54:50;19.92;;;14.20;;
2750;SDS011;1383;48.362;10.908;2022-12-08T03:57:17;20.13;;;12.55;;
2750;SDS011;1383;48.362;10.908;2022-12-08T03:59:44;22.90;;;13.77;;
2750;SDS011;1383;48.362;10.908;2022-12-08T04:02:10;20.75;;;13.55;;
2750;SDS011;1383;48.362;10.908;2022-12-08T04:04:37;19.35;;;13.30;;
2750;SDS011;1383;48.362;10.908;2022-12-08T04:07:04;18.80;;;13.45;;
2750;SDS011;1383;48.362;10.908;2022-12-08T04:09:31;20.13;;;14.93;;
2750;SDS011;1383;48.362;10.908;2022-12-08T04:11:57;19.95;;;13.55;;
2750;SDS011;1383;48.362;10.908;2022-12-08T04:14:24;22.38;;;14.63;;
2750;SDS011;1383;48.362;10.908;2022-12-08T04:16:51;20.50;;;13.38;;
2750;SDS011;1383;48.362;10.908;2022-12-08T04:19:18;22.33;;;15.55;;
2750;SDS011;1383;48.362;10.908;2022-12-08T04:21:44;22.73;;;14.80;;
2750;SDS011;1383;48.362;10.908;2022-12-08T04:24:11;24.05;;;15.23;;
2750;SDS011;1383;48.362;10.908;2022-12-08T04:26:38;22.83;;;14.38;;
2750;SDS011;1383;48.362;10.908;2022-12-08T04:29:05;23.95;;;14.98;;
2750;SDS011;1383;48.362;10.908;2022-12-08T04:31:32;22.35;;;15.60;;
2750;SDS011;1383;48.362;10.908;2022-12-08T04:33:58;24.00;;;13.55;;
2750;SDS011;1383;48.362;10.908;2022-12-08T04:36:25;20.38;;;14.27;;
2750;SDS011;1383;48.362;10.908;2022-12-08T04:38:52;23.02;;;14.02;;
2750;SDS011;1383;48.362;10.908;2022-12-08T04:41:19;17.73;;;13.00;;
2750;SDS011;1383;48.362;10.908;2022-12-08T04:43:46;23.75;;;15.05;;
2750;SDS011;1383;48.362;10.908;2022-12-08T04:46:13;21.20;;;13.82;;
2750;SDS011;1383;48.362;10.908;2022-12-08T04:48:40;23.65;;;16.48;;
2750;SDS011;1383;48.362;10.908;2022-12-08T04:51:10;22.02;;;15.45;;
2750;SDS011;1383;48.362;10.908;2022-12-08T04:53:42;21.33;;;14.82;;
2750;SDS011;1383;48.362;10.908;2022-12-08T04:56:15;24.70;;;17.08;;
2750;SDS011;1383;48.362;10.908;2022-12-08T04:58:43;17.42;;;13.93;;
2750;SDS011;1383;48.362;10.908;2022-12-08T05:01:11;25.48;;;15.15;;
2750;SDS011;1383;48.362;10.908;2022-12-08T05:03:38;24.98;;;17.17;;
2750;SDS011;1383;48.362;10.908;2022-12-08T05:06:05;22.52;;;14.63;;
2750;SDS011;1383;48.362;10.908;2022-12-08T05:08:32;19.20;;;14.38;;
2750;SDS011;1383;48.362;10.908;2022-12-08T05:11:06;21.83;;;14.30;;
2750;SDS011;1383;48.362;10.908;2022-12-08T05:13:34;25.30;;;13.98;;
2750;SDS011;1383;48.362;10.908;2022-12-08T05:16:02;23.77;;;14.35;;
2750;SDS011;1383;48.362;10.908;2022-12-08T05:18:29;23.73;;;16.33;;
2750;SDS011;1383;48.362;10.908;2022-12-08T05:20:56;22.00;;;15.77;;
2750;SDS011;1383;48.362;10.908;2022-12-08T05:23:23;19.55;;;14.55;;
2750;SDS011;1383;48.362;10.908;2022-12-08T05:25:50;26.70;;;17.35;;
2750;SDS011;1383;48.362;10.908;2022-12-08T05:28:17;21.80;;;15.85;;
2750;SDS011;1383;48.362;10.908;2022-12-08T05:31:03;24.60;;;16.92;;
2750;SDS011;1383;48.362;10.908;2022-12-08T05:33:30;20.85;;;15.68;;
2750;SDS011;1383;48.362;10.908;2022-12-08T05:35:57;25.98;;;16.00;;
2750;SDS011;1383;48.362;10.908;2022-12-08T05:38:24;19.35;;;14.18;;
2750;SDS011;1383;48.362;10.908;2022-12-08T05:40:51;20.58;;;13.65;;
2750;SDS011;1383;48.362;10.908;2022-12-08T05:43:18;20.02;;;15.85;;
2750;SDS011;1383;48.362;10.908;2022-12-08T05:45:44;21.88;;;14.82;;
2750;SDS011;1383;48.362;10.908;2022-12-08T05:48:11;24.92;;;16.45;;
2750;SDS011;1383;48.362;10.908;2022-12-08T05:50:38;19.83;;;14.52;;
2750;SDS011;1383;48.362;10.908;2022-12-08T05:53:05;23.92;;;16.25;;
2750;SDS011;1383;48.362;10.908;2022-12-08T05:55:32;26.75;;;15.73;;
2750;SDS011;1383;48.362;10.908;2022-12-08T05:57:59;25.33;;;15.25;;
2750;SDS011;1383;48.362;10.908;2022-12-08T06:00:33;24.30;;;16.83;;
2750;SDS011;1383;48.362;10.908;2022-12-08T06:03:00;23.02;;;15.00;;
2750;SDS011;1383;48.362;10.908;2022-12-08T06:05:27;23.77;;;14.27;;
2750;SDS011;1383;48.362;10.908;2022-12-08T06:07:53;23.02;;;16.67;;
2750;SDS011;1383;48.362;10.908;2022-12-08T06:10:20;24.00;;;16.52;;
2750;SDS011;1383;48.362;10.908;2022-12-08T06:12:47;24.20;;;15.57;;
2750;SDS011;1383;48.362;10.908;2022-12-08T06:15:14;25.50;;;16.08;;
2750;SDS011;1383;48.362;10.908;2022-12-08T06:17:41;24.17;;;16.02;;
2750;SDS011;1383;48.362;10.908;2022-12-08T06:20:07;27.00;;;18.20;;
2750;SDS011;1383;48.362;10.908;2022-12-08T06:22:35;28.98;;;18.00;;
2750;SDS011;1383;48.362;10.908;2022-12-08T06:25:03;24.73;;;16.38;;
2750;SDS011;1383;48.362;10.908;2022-12-08T06:27:35;22.73;;;15.80;;
2750;SDS011;1383;48.362;10.908;2022-12-08T06:30:02;27.52;;;17.98;;
2750;SDS011;1383;48.362;10.908;2022-12-08T06:32:30;25.10;;;17.17;;
2750;SDS011;1383;48.362;10.908;2022-12-08T06:34:56;25.77;;;16.10;;
2750;SDS011;1383;48.362;10.908;2022-12-08T06:37:23;26.27;;;17.60;;
2750;SDS011;1383;48.362;10.908;2022-12-08T06:39:50;26.17;;;17.23;;
2750;SDS011;1383;48.362;10.908;2022-12-08T06:42:17;30.45;;;19.25;;
2750;SDS011;1383;48.362;10.908;2022-12-08T06:45:02;30.70;;;18.73;;
2750;SDS011;1383;48.362;10.908;2022-12-08T06:47:29;29.60;;;19.02;;
2750;SDS011;1383;48.362;10.908;2022-12-08T06:49:56;26.63;;;17.40;;
2750;SDS011;1383;48.362;10.908;2022-12-08T06:52:23;23.98;;;17.40;;
2750;SDS011;1383;48.362;10.908;2022-12-08T06:54:50;22.05;;;15.65;;
2750;SDS011;1383;48.362;10.908;2022-12-08T06:57:17;24.90;;;18.52;;
2750;SDS011;1383;48.362;10.908;2022-12-08T06:59:43;29.25;;;17.73;;
2750;SDS011;1383;48.362;10.908;2022-12-08T07:02:10;22.13;;;14.88;;
2750;SDS011;1383;48.362;10.908;2022-12-08T07:04:37;26.40;;;15.57;;
2750;SDS011;1383;48.362;10.908;2022-12-08T07:07:04;23.23;;;16.25;;
2750;SDS011;1383;48.362;10.908;2022-12-08T07:09:31;24.25;;;16.70;;
2750;SDS011;1383;48.362;10.908;2022-12-08T07:11:58;24.58;;;15.80;;
2750;SDS011;1383;48.362;10.908;2022-12-08T07:14:25;25.35;;;15.15;;
2750;SDS011;1383;48.362;10.908;2022-12-08T07:16:52;23.90;;;15.95;;
2750;SDS011;1383;48.362;10.908;2022-12-08T07:19:19;22.10;;;16.55;;
2750;SDS011;1383;48.362;10.908;2022-12-08T07:21:46;22.15;;;15.38;;
2750;SDS011;1383;48.362;10.908;2022-12-08T07:24:13;24.20;;;16.15;;
2750;SDS011;1383;48.362;10.908;2022-12-08T07:26:40;22.85;;;16.58;;
2750;SDS011;1383;48.362;10.908;2022-12-08T07:29:08;19.35;;;14.45;;
2750;SDS011;1383;48.362;10.908;2022-12-08T07:31:35;30.05;;;16.63;;
2750;SDS011;1383;48.362;10.908;2022-12-08T07:34:02;27.13;;;17.25;;
2750;SDS011;1383;48.362;10.908;2022-12-08T07:36:29;24.30;;;15.60;;
2750;SDS011;1383;48.362;10.908;2022-12-08T07:38:57;22.25;;;14.73;;
2750;SDS011;1383;48.362;10.908;2022-12-08T07:41:25;29.73;;;18.05;;
2750;SDS011;1383;48.362;10.908;2022-12-08T07:43:52;25.42;;;15.90;;
2750;SDS011;1383;48.362;10.908;2022-12-08T07:46:19;26.13;;;16.55;;
2750;SDS011;1383;48.362;10.908;2022-12-08T07:48:48;28.00;;;16.92;;
2750;SDS011;1383;48.362;10.908;2022-12-08T07:51:15;25.15;;;17.33;;
2750;SDS011;1383;48.362;10.908;2022-12-08T07:53:43;25.45;;;17.15;;
2750;SDS011;1383;48.362;10.908;2022-12-08T07:56:19;29.48;;;17.52;;
2750;SDS011;1383;48.362;10.908;2022-12-08T07:58:46;27.63;;;16.83;;
2750;SDS011;1383;48.362;10.908;2022-12-08T08:01:17;25.17;;;17.60;;
2750;SDS011;1383;48.362;10.908;2022-12-08T08:03:55;24.92;;;16.38;;
2750;SDS011;1383;48.362;10.908;2022-12-08T08:06:23;27.20;;;17.08;;
2750;SDS011;1383;48.362;10.908;2022-12-08T08:08:49;29.45;;;19.95;;
2750;SDS011;1383;48.362;10.908;2022-12-08T08:11:16;28.02;;;18.40;;
2750;SDS011;1383;48.362;10.908;2022-12-08T08:13:46;27.13;;;16.10;;
2750;SDS011;1383;48.362;10.908;2022-12-08T08:16:14;23.73;;;16.30;;
2750;SDS011;1383;48.362;10.908;2022-12-08T08:18:41;25.77;;;18.38;;
2750;SDS011;1383;48.362;10.908;2022-12-08T08:21:08;42.17;;;21.48;;
2750;SDS011;1383;48.362;10.908;2022-12-08T08:23:55;26.08;;;17.70;;
2750;SDS011;1383;48.362;10.908;2022-12-08T08:26:22;25.90;;;17.95;;
2750;SDS011;1383;48.362;10.908;2022-12-08T08:28:49;20.83;;;15.85;;
2750;SDS011;1383;48.362;10.908;2022-12-08T08:31:16;23.75;;;16.60;;
2750;SDS011;1383;48.362;10.908;2022-12-08T08:33:42;22.60;;;16.88;;
2750;SDS011;1383;48.362;10.908;2022-12-08T08:36:09;22.98;;;17.88;;
2750;SDS011;1383;48.362;10.908;2022-12-08T08:38:36;21.33;;;16.30;;
2750;SDS011;1383;48.362;10.908;2022-12-08T08:41:08;27.90;;;17.13;;
2750;SDS011;1383;48.362;10.908;2022-12-08T08:43:36;27.10;;;17.40;;
2750;SDS011;1383;48.362;10.908;2022-12-08T08:46:04;22.55;;;15.35;;
2750;SDS011;1383;48.362;10.908;2022-12-08T08:48:32;25.00;;;15.63;;
2750;SDS011;1383;48.362;10.908;2022-12-08T08:51:05;19.17;;;13.20;;
2750;SDS011;1383;48.362;10.908;2022-12-08T08:53:34;27.00;;;17.08;;
2750;SDS011;1383;48.362;10.908;2022-12-08T08:56:01;22.95;;;16.35;;
2750;SDS011;1383;48.362;10.908;2022-12-08T08:58:30;22.48;;;17.17;;
2750;SDS011;1383;48.362;10.908;2022-12-08T09:00:57;27.38;;;17.35;;
2750;SDS011;1383;48.362;10.908;2022-12-08T09:03:24;25.80;;;18.88;;
2750;SDS011;1383;48.362;10.908;2022-12-08T09:05:50;30.88;;;18.50;;
2750;SDS011;1383;48.362;10.908;2022-12-08T09:08:17;25.42;;;16.63;;
2750;SDS011;1383;48.362;10.908;2022-12-08T09:10:44;25.63;;;17.60;;
2750;SDS011;1383;48.362;10.908;2022-12-08T09:13:11;22.58;;;16.67;;
2750;SDS011;1383;48.362;10.908;2022-12-08T09:15:38;24.10;;;17.33;;
2750;SDS011;1383;48.362;10.908;2022-12-08T09:18:05;49.90;;;19.60;;
2750;SDS011;1383;48.362;10.908;2022-12-08T09:20:33;33.15;;;19.10;;
2750;SDS011;1383;48.362;10.908;2022-12-08T09:23:00;25.58;;;18.15;;
2750;SDS011;1383;48.362;10.908;2022-12-08T09:25:27;23.55;;;17.23;;
2750;SDS011;1383;48.362;10.908;2022-12-08T09:27:54;26.52;;;18.00;;
2750;SDS011;1383;48.362;10.908;2022-12-08T09:30:21;27.73;;;20.98;;
2750;SDS011;1383;48.362;10.908;2022-12-08T09:32:48;38.78;;;19.20;;
2750;SDS011;1383;48.362;10.908;2022-12-08T09:35:18;27.55;;;18.65;;
2750;SDS011;1383;48.362;10.908;2022-12-08T09:37:45;24.25;;;18.98;;
2750;SDS011;1383;48.362;10.908;2022-12-08T09:40:14;29.55;;;18.10;;
2750;SDS011;1383;48.362;10.908;2022-12-08T09:45:49;24.55;;;16.92;;
2750;SDS011;1383;48.362;10.908;2022-12-08T09:48:18;25.95;;;20.05;;
2750;SDS011;1383;48.362;10.908;2022-12-08T09:50:51;27.90;;;17.60;;
2750;SDS011;1383;48.362;10.908;2022-12-08T09:53:25;25.50;;;18.33;;
2750;SDS011;1383;48.362;10.908;2022-12-08T10:01:45;24.55;;;18.23;;
2750;SDS011;1383;48.362;10.908;2022-12-08T10:04:25;25.65;;;17.90;;
2750;SDS011;1383;48.362;10.908;2022-12-08T10:18:12;25.23;;;16.75;;
2750;SDS011;1383;48.362;10.908;2022-12-08T10:20:52;25.15;;;16.33;;
2750;SDS011;1383;48.362;10.908;2022-12-08T10:23:27;24.65;;;16.60;;
2750;SDS011;1383;48.362;10.908;2022-12-08T10:28:32;23.58;;;17.13;;
2750;SDS011;1383;48.362;10.908;2022-12-08T10:31:02;27.15;;;18.67;;
2750;SDS011;1383;48.362;10.908;2022-12-08T10:33:30;24.85;;;16.15;;
2750;SDS011;1383;48.362;10.908;2022-12-08T10:36:00;22.70;;;16.35;;
2750;SDS011;1383;48.362;10.908;2022-12-08T10:38:36;20.83;;;14.52;;
2750;SDS011;1383;48.362;10.908;2022-12-08T10:43:38;23.15;;;15.55;;
2750;SDS011;1383;48.362;10.908;2022-12-08T10:51:24;21.90;;;14.27;;
2750;SDS011;1383;48.362;10.908;2022-12-08T10:53:53;20.40;;;15.15;;
2750;SDS011;1383;48.362;10.908;2022-12-08T10:56:23;19.83;;;13.52;;
2750;SDS011;1383;48.362;10.908;2022-12-08T11:01:36;23.30;;;15.70;;
2750;SDS011;1383;48.362;10.908;2022-12-08T11:04:18;23.00;;;15.52;;
2750;SDS011;1383;48.362;10.908;2022-12-08T11:06:47;16.98;;;13.50;;
2750;SDS011;1383;48.362;10.908;2022-12-08T11:11:53;20.88;;;15.50;;
2750;SDS011;1383;48.362;10.908;2022-12-08T11:14:25;26.10;;;16.25;;
2750;SDS011;1383;48.362;10.908;2022-12-08T11:17:06;20.52;;;14.25;;
2750;SDS011;1383;48.362;10.908;2022-12-08T11:19:37;18.65;;;14.05;;
2750;SDS011;1383;48.362;10.908;2022-12-08T11:25:01;18.15;;;12.25;;
2750;SDS011;1383;48.362;10.908;2022-12-08T11:27:37;21.05;;;13.60;;
2750;SDS011;1383;48.362;10.908;2022-12-08T11:32:56;16.08;;;12.75;;
2750;SDS011;1383;48.362;10.908;2022-12-08T11:38:04;15.57;;;12.40;;
2750;SDS011;1383;48.362;10.908;2022-12-08T11:40:49;14.68;;;11.05;;
2750;SDS011;1383;48.362;10.908;2022-12-08T11:43:35;16.65;;;10.07;;
2750;SDS011;1383;48.362;10.908;2022-12-08T11:46:53;13.20;;;10.75;;
2750;SDS011;1383;48.362;10.908;2022-12-08T11:49:03;13.20;;;10.23;;
2750;SDS011;1383;48.362;10.908;2022-12-08T11:51:55;11.48;;;9.45;;
2750;SDS011;1383;48.362;10.908;2022-12-08T11:54:29;12.50;;;9.43;;
2750;SDS011;1383;48.362;10.908;2022-12-08T11:57:01;16.35;;;10.07;;
2750;SDS011;1383;48.362;10.908;2022-12-08T11:59:38;13.75;;;9.45;;
2750;SDS011;1383;48.362;10.908;2022-12-08T12:02:16;16.17;;;10.30;;
2750;SDS011;1383;48.362;10.908;2022-12-08T12:04:51;13.57;;;9.80;;
2750;SDS011;1383;48.362;10.908;2022-12-08T12:15:50;17.20;;;11.98;;
2750;SDS011;1383;48.362;10.908;2022-12-08T12:18:47;18.15;;;11.05;;
2750;SDS011;1383;48.362;10.908;2022-12-08T12:21:41;12.85;;;10.02;;
2750;SDS011;1383;48.362;10.908;2022-12-08T12:24:15;17.50;;;11.45;;
2750;SDS011;1383;48.362;10.908;2022-12-08T12:26:57;14.90;;;11.10;;
2750;SDS011;1383;48.362;10.908;2022-12-08T12:29:26;21.40;;;11.48;;
2750;SDS011;1383;48.362;10.908;2022-12-08T12:32:00;17.00;;;10.85;;
2750;SDS011;1383;48.362;10.908;2022-12-08T12:37:17;15.90;;;11.43;;
2750;SDS011;1383;48.362;10.908;2022-12-08T12:53:02;19.33;;;13.30;;
2750;SDS011;1383;48.362;10.908;2022-12-08T13:03:45;18.58;;;12.65;;
2750;SDS011;1383;48.362;10.908;2022-12-08T13:06:31;19.83;;;12.13;;
2750;SDS011;1383;48.362;10.908;2022-12-08T13:09:03;17.00;;;12.77;;
2750;SDS011;1383;48.362;10.908;2022-12-08T13:11:43;19.27;;;13.85;;
2750;SDS011;1383;48.362;10.908;2022-12-08T13:14:49;16.75;;;13.05;;
2750;SDS011;1383;48.362;10.908;2022-12-08T13:17:14;20.77;;;13.80;;
2750;SDS011;1383;48.362;10.908;2022-12-08T13:19:52;18.38;;;12.57;;
2750;SDS011;1383;48.362;10.908;2022-12-08T13:30:53;17.77;;;12.48;;
2750;SDS011;1383;48.362;10.908;2022-12-08T13:33:30;15.48;;;12.52;;
2750;SDS011;1383;48.362;10.908;2022-12-08T13:36:37;18.30;;;13.15;;
2750;SDS011;1383;48.362;10.908;2022-12-08T13:39:03;16.00;;;11.85;;
2750;SDS011;1383;48.362;10.908;2022-12-08T13:41:33;16.58;;;11.95;;
2750;SDS011;1383;48.362;10.908;2022-12-08T13:44:13;21.27;;;14.48;;
2750;SDS011;1383;48.362;10.908;2022-12-08T13:47:09;15.38;;;11.88;;
2750;SDS011;1383;48.362;10.908;2022-12-08T13:50:03;18.02;;;13.93;;
2750;SDS011;1383;48.362;10.908;2022-12-08T13:53:14;16.13;;;12.48;;
2750;SDS011;1383;48.362;10.908;2022-12-08T13:56:02;20.58;;;12.82;;
2750;SDS011;1383;48.362;10.908;2022-12-08T13:58:50;20.10;;;13.73;;
2750;SDS011;1383;48.362;10.908;2022-12-08T14:01:31;20.17;;;14.02;;
2750;SDS011;1383;48.362;10.908;2022-12-08T14:04:12;15.02;;;11.57;;
2750;SDS011;1383;48.362;10.908;2022-12-08T14:07:02;20.48;;;12.75;;
2750;SDS011;1383;48.362;10.908;2022-12-08T14:09:33;20.95;;;14.00;;
2750;SDS011;1383;48.362;10.908;2022-12-08T14:12:05;16.35;;;12.40;;
2750;SDS011;1383;48.362;10.908;2022-12-08T14:14:35;14.23;;;10.82;;
2750;SDS011;1383;48.362;10.908;2022-12-08T14:17:26;16.02;;;12.30;;
2750;SDS011;1383;48.362;10.908;2022-12-08T14:19:54;17.23;;;12.48;;
2750;SDS011;1383;48.362;10.908;2022-12-08T14:22:44;20.35;;;12.50;;
2750;SDS011;1383;48.362;10.908;2022-12-08T14:25:13;17.10;;;13.73;;
2750;SDS011;1383;48.362;10.908;2022-12-08T14:27:41;18.55;;;13.13;;
2750;SDS011;1383;48.362;10.908;2022-12-08T14:32:42;19.20;;;12.60;;
2750;SDS011;1383;48.362;10.908;2022-12-08T14:35:21;16.98;;;12.57;;
2750;SDS011;1383;48.362;10.908;2022-12-08T14:37:57;19.10;;;12.25;;
2750;SDS011;1383;48.362;10.908;2022-12-08T14:40:34;15.65;;;12.93;;
2750;SDS011;1383;48.362;10.908;2022-12-08T14:46:19;18.88;;;13.00;;
2750;SDS011;1383;48.362;10.908;2022-12-08T14:53:34;16.30;;;13.13;;
2750;SDS011;1383;48.362;10.908;2022-12-08T14:56:16;22.17;;;13.63;;
2750;SDS011;1383;48.362;10.908;2022-12-08T14:58:48;21.63;;;13.40;;
2750;SDS011;1383;48.362;10.908;2022-12-08T15:01:26;18.15;;;14.23;;
2750;SDS011;1383;48.362;10.908;2022-12-08T15:03:58;19.90;;;13.57;;
2750;SDS011;1383;48.362;10.908;2022-12-08T15:09:37;22.90;;;14.48;;
2750;SDS011;1383;48.362;10.908;2022-12-08T15:14:42;23.60;;;14.43;;
2750;SDS011;1383;48.362;10.908;2022-12-08T15:17:44;20.13;;;12.93;;
2750;SDS011;1383;48.362;10.908;2022-12-08T15:23:15;23.17;;;15.18;;
2750;SDS011;1383;48.362;10.908;2022-12-08T15:25:46;23.55;;;14.63;;
2750;SDS011;1383;48.362;10.908;2022-12-08T15:28:14;21.77;;;13.90;;
2750;SDS011;1383;48.362;10.908;2022-12-08T15:30:44;23.23;;;15.75;;
2750;SDS011;1383;48.362;10.908;2022-12-08T15:33:12;19.42;;;14.63;;
2750;SDS011;1383;48.362;10.908;2022-12-08T15:35:39;23.17;;;15.05;;
2750;SDS011;1383;48.362;10.908;2022-12-08T15:38:08;19.92;;;14.63;;
2750;SDS011;1383;48.362;10.908;2022-12-08T15:40:42;17.90;;;13.15;;
2750;SDS011;1383;48.362;10.908;2022-12-08T15:43:09;19.83;;;14.95;;
2750;SDS011;1383;48.362;10.908;2022-12-08T15:45:36;22.58;;;15.85;;
2750;SDS011;1383;48.362;10.908;2022-12-08T15:48:15;18.10;;;12.98;;
2750;SDS011;1383;48.362;10.908;2022-12-08T15:50:44;23.73;;;15.95;;
2750;SDS011;1383;48.362;10.908;2022-12-08T15:53:12;17.98;;;14.52;;
2750;SDS011;1383;48.362;10.908;2022-12-08T15:55:40;20.33;;;14.35;;
2750;SDS011;1383;48.362;10.908;2022-12-08T15:58:27;20.13;;;13.93;;
2750;SDS011;1383;48.362;10.908;2022-12-08T16:01:14;21.63;;;14.50;;
2750;SDS011;1383;48.362;10.908;2022-12-08T16:03:42;22.73;;;13.93;;
2750;SDS011;1383;48.362;10.908;2022-12-08T16:06:29;20.70;;;14.88;;
2750;SDS011;1383;48.362;10.908;2022-12-08T16:09:16;21.50;;;14.77;;
2750;SDS011;1383;48.362;10.908;2022-12-08T16:11:52;20.70;;;15.48;;
2750;SDS011;1383;48.362;10.908;2022-12-08T16:14:38;25.73;;;17.00;;
2750;SDS011;1383;48.362;10.908;2022-12-08T16:17:26;22.33;;;14.63;;
2750;SDS011;1383;48.362;10.908;2022-12-08T16:19:53;24.23;;;15.95;;
2750;SDS011;1383;48.362;10.908;2022-12-08T16:22:27;29.20;;;20.05;;
2750;SDS011;1383;48.362;10.908;2022-12-08T16:25:15;23.73;;;16.33;;
2750;SDS011;1383;48.362;10.908;2022-12-08T16:27:46;23.60;;;17.77;;
2750;SDS011;1383;48.362;10.908;2022-12-08T16:30:33;30.48;;;16.05;;
2750;SDS011;1383;48.362;10.908;2022-12-08T16:33:01;22.35;;;16.65;;
2750;SDS011;1383;48.362;10.908;2022-12-08T16:35:28;24.48;;;16.90;;
2750;SDS011;1383;48.362;10.908;2022-12-08T16:37:55;25.20;;;17.23;;
2750;SDS011;1383;48.362;10.908;2022-12-08T16:40:22;27.25;;;16.98;;
2750;SDS011;1383;48.362;10.908;2022-12-08T16:42:49;29.80;;;17.90;;
2750;SDS011;1383;48.362;10.908;2022-12-08T16:45:17;26.23;;;17.45;;
2750;SDS011;1383;48.362;10.908;2022-12-08T16:47:46;31.50;;;18.45;;
2750;SDS011;1383;48.362;10.908;2022-12-08T16:50:15;28.88;;;18.70;;
2750;SDS011;1383;48.362;10.908;2022-12-08T16:53:00;24.50;;;17.00;;
2750;SDS011;1383;48.362;10.908;2022-12-08T16:55:33;22.38;;;17.95;;
2750;SDS011;1383;48.362;10.908;2022-12-08T16:58:00;23.15;;;18.10;;
2750;SDS011;1383;48.362;10.908;2022-12-08T17:00:28;26.40;;;18.70;;
2750;SDS011;1383;48.362;10.908;2022-12-08T17:02:56;28.80;;;19.45;;
2750;SDS011;1383;48.362;10.908;2022-12-08T17:05:24;29.30;;;19.67;;
2750;SDS011;1383;48.362;10.908;2022-12-08T17:07:52;30.77;;;19.25;;
2750;SDS011;1383;48.362;10.908;2022-12-08T17:10:23;29.92;;;20.85;;